sensor_id;sensor_type;location;lat;lon;timestamp;pressure;altitude;pressure_sealevel;temperature;humidity
5595;BME280;1003;48.002;7.788;2023-03-31T00:02:04;98469.00;;;13.60;100.00
5595;BME280;1003;48.002;7.788;2023-03-31T00:04:38;98464.78;;;13.60;100.00
5595;BME280;1003;48.002;7.788;2023-03-31T00:07:12;98462.97;;;13.64;100.00
5595;BME280;1003;48.002;7.788;2023-03-31T00:09:41;98459.34;;;13.71;100.00
5595;BME280;1003;48.002;7.788;2023-03-31T00:12:12;98446.38;;;13.82;100.00
5595;BME280;1003;48.002;7.788;2023-03-31T00:14:41;98441.22;;;13.85;100.00
5595;BME280;1003;48.002;7.788;2023-03-31T00:17:08;98443.91;;;13.80;100.00
5595;BME280;1003;48.002;7.788;2023-03-31T00:19:36;98444.78;;;13.79;100.00
5595;BME280;1003;48.002;7.788;2023-03-31T00:22:04;98444.00;;;13.77;100.00
5595;BME280;1003;48.002;7.788;2023-03-31T00:24:32;98453.28;;;13.77;100.00
5595;BME280;1003;48.002;7.788;2023-03-31T00:26:59;98469.47;;;13.71;100.00
5595;BME280;1003;48.002;7.788;2023-03-31T00:29:28;98460.59;;;13.84;100.00
5595;BME280;1003;48.002;7.788;2023-03-31T00:31:56;98474.88;;;13.85;100.00
5595;BME280;1003;48.002;7.788;2023-03-31T00:34:24;98478.31;;;13.83;100.00
5595;BME280;1003;48.002;7.788;2023-03-31T00:36:51;98493.47;;;13.83;100.00
5595;BME280;1003;48.002;7.788;2023-03-31T00:39:21;98492.84;;;13.78;100.00
5595;BME280;1003;48.002;7.788;2023-03-31T00:41:50;98494.00;;;13.68;100.00
5595;BME280;1003;48.002;7.788;2023-03-31T00:44:19;98494.31;;;13.58;100.00
5595;BME280;1003;48.002;7.788;2023-03-31T00:46:54;98491.88;;;13.55;100.00
5595;BME280;1003;48.002;7.788;2023-03-31T00:49:28;98481.28;;;13.46;100.00
5595;BME280;1003;48.002;7.788;2023-03-31T00:52:03;98495.84;;;13.37;100.00
5595;BME280;1003;48.002;7.788;2023-03-31T00:54:35;98495.22;;;13.31;100.00
5595;BME280;1003;48.002;7.788;2023-03-31T00:57:04;98493.72;;;13.25;100.00
5595;BME280;1003;48.002;7.788;2023-03-31T00:59:37;98493.81;;;13.22;100.00
5595;BME280;1003;48.002;7.788;2023-03-31T01:02:08;98494.91;;;13.13;100.00
5595;BME280;1003;48.002;7.788;2023-03-31T01:04:42;98481.81;;;13.02;100.00
5595;BME280;1003;48.002;7.788;2023-03-31T01:07:17;98471.94;;;12.95;100.00
5595;BME280;1003;48.002;7.788;2023-03-31T01:09:50;98465.72;;;13.05;100.00
5595;BME280;1003;48.002;7.788;2023-03-31T01:12:21;98453.19;;;13.03;100.00
5595;BME280;1003;48.002;7.788;2023-03-31T01:14:49;98440.09;;;12.91;100.00
5595;BME280;1003;48.002;7.788;2023-03-31T01:17:20;98450.75;;;13.00;100.00
5595;BME280;1003;48.002;7.788;2023-03-31T01:20:03;98442.44;;;12.97;100.00
5595;BME280;1003;48.002;7.788;2023-03-31T01:26:41;98438.47;;;12.90;100.00
5595;BME280;1003;48.002;7.788;2023-03-31T01:29:34;98425.38;;;12.78;100.00
5595;BME280;1003;48.002;7.788;2023-03-31T01:32:36;98430.69;;;12.69;100.00
5595;BME280;1003;48.002;7.788;2023-03-31T01:35:43;98428.09;;;12.72;100.00
5595;BME280;1003;48.002;7.788;2023-03-31T01:39:04;98405.44;;;12.71;100.00
5595;BME280;1003;48.002;7.788;2023-03-31T01:41:51;98396.28;;;12.68;100.00
5595;BME280;1003;48.002;7.788;2023-03-31T01:44:32;98389.09;;;12.56;100.00
5595;BME280;1003;48.002;7.788;2023-03-31T01:47:13;98369.94;;;12.50;100.00
5595;BME280;1003;48.002;7.788;2023-03-31T01:49:50;98366.94;;;12.39;100.00
5595;BME280;1003;48.002;7.788;2023-03-31T01:52:26;98384.38;;;12.45;100.00
5595;BME280;1003;48.002;7.788;2023-03-31T01:55:03;98377.72;;;12.43;100.00
5595;BME280;1003;48.002;7.788;2023-03-31T01:57:38;98365.97;;;12.43;100.00
5595;BME280;1003;48.002;7.788;2023-03-31T02:00:10;98372.94;;;12.35;100.00
5595;BME280;1003;48.002;7.788;2023-03-31T02:02:44;98365.78;;;12.49;100.00
5595;BME280;1003;48.002;7.788;2023-03-31T02:05:18;98367.44;;;12.50;100.00
5595;BME280;1003;48.002;7.788;2023-03-31T02:07:51;98360.09;;;12.43;100.00
5595;BME280;1003;48.002;7.788;2023-03-31T02:10:21;98344.94;;;12.44;100.00
5595;BME280;1003;48.002;7.788;2023-03-31T02:12:54;98337.75;;;12.32;100.00
5595;BME280;1003;48.002;7.788;2023-03-31T02:15:32;98333.88;;;12.22;100.00
5595;BME280;1003;48.002;7.788;2023-03-31T02:18:04;98337.09;;;12.25;100.00
5595;BME280;1003;48.002;7.788;2023-03-31T02:20:38;98339.13;;;12.14;100.00
5595;BME280;1003;48.002;7.788;2023-03-31T02:23:09;98325.97;;;12.06;100.00
5595;BME280;1003;48.002;7.788;2023-03-31T02:25:46;98317.41;;;12.10;100.00
5595;BME280;1003;48.002;7.788;2023-03-31T02:28:21;98312.50;;;12.07;100.00
5595;BME280;1003;48.002;7.788;2023-03-31T02:31:02;98298.75;;;12.17;100.00
5595;BME280;1003;48.002;7.788;2023-03-31T02:33:31;98285.28;;;12.18;100.00
5595;BME280;1003;48.002;7.788;2023-03-31T02:35:59;98270.53;;;12.06;100.00
5595;BME280;1003;48.002;7.788;2023-03-31T02:38:26;98272.06;;;12.12;100.00
5595;BME280;1003;48.002;7.788;2023-03-31T02:40:53;98249.53;;;12.07;100.00
5595;BME280;1003;48.002;7.788;2023-03-31T02:43:22;98242.59;;;12.14;100.00
5595;BME280;1003;48.002;7.788;2023-03-31T02:45:50;98220.88;;;12.09;100.00
5595;BME280;1003;48.002;7.788;2023-03-31T02:48:20;98215.16;;;12.04;100.00
5595;BME280;1003;48.002;7.788;2023-03-31T02:51:19;98197.69;;;12.00;100.00
5595;BME280;1003;48.002;7.788;2023-03-31T02:54:19;98188.47;;;11.99;100.00
5595;BME280;1003;48.002;7.788;2023-03-31T02:57:36;98166.63;;;11.99;100.00
5595;BME280;1003;48.002;7.788;2023-03-31T03:00:21;98160.78;;;11.99;100.00
5595;BME280;1003;48.002;7.788;2023-03-31T03:03:16;98154.09;;;11.98;100.00
5595;BME280;1003;48.002;7.788;2023-03-31T03:05:58;98138.13;;;11.99;100.00
5595;BME280;1003;48.002;7.788;2023-03-31T03:08:46;98129.53;;;12.04;100.00
5595;BME280;1003;48.002;7.788;2023-03-31T03:11:28;98110.59;;;12.19;100.00
5595;BME280;1003;48.002;7.788;2023-03-31T03:14:05;98098.72;;;12.23;100.00
5595;BME280;1003;48.002;7.788;2023-03-31T03:16:41;98097.78;;;12.25;100.00
5595;BME280;1003;48.002;7.788;2023-03-31T03:19:20;98071.41;;;12.35;100.00
5595;BME280;1003;48.002;7.788;2023-03-31T03:21:47;98057.09;;;12.36;100.00
5595;BME280;1003;48.002;7.788;2023-03-31T03:24:15;98040.63;;;12.51;100.00
5595;BME280;1003;48.002;7.788;2023-03-31T03:26:44;98025.19;;;12.58;100.00
5595;BME280;1003;48.002;7.788;2023-03-31T03:29:11;98010.69;;;12.87;100.00
5595;BME280;1003;48.002;7.788;2023-03-31T03:31:41;97980.78;;;12.78;100.00
5595;BME280;1003;48.002;7.788;2023-03-31T03:34:08;97977.50;;;12.76;100.00
5595;BME280;1003;48.002;7.788;2023-03-31T03:36:35;97955.81;;;12.72;100.00
5595;BME280;1003;48.002;7.788;2023-03-31T03:39:04;97935.66;;;12.72;100.00
5595;BME280;1003;48.002;7.788;2023-03-31T03:41:31;97931.66;;;12.66;100.00
5595;BME280;1003;48.002;7.788;2023-03-31T03:43:58;97921.22;;;12.75;100.00
5595;BME280;1003;48.002;7.788;2023-03-31T03:46:26;97912.81;;;12.75;100.00
5595;BME280;1003;48.002;7.788;2023-03-31T03:48:54;97919.47;;;12.77;100.00
5595;BME280;1003;48.002;7.788;2023-03-31T03:51:22;97911.00;;;12.78;100.00
5595;BME280;1003;48.002;7.788;2023-03-31T03:53:49;97894.72;;;12.87;100.00
5595;BME280;1003;48.002;7.788;2023-03-31T03:56:16;97896.28;;;12.90;100.00
5595;BME280;1003;48.002;7.788;2023-03-31T03:58:43;97875.28;;;12.89;100.00
5595;BME280;1003;48.002;7.788;2023-03-31T04:01:10;97864.38;;;12.88;100.00
5595;BME280;1003;48.002;7.788;2023-03-31T04:03:37;97840.16;;;12.84;100.00
5595;BME280;1003;48.002;7.788;2023-03-31T04:06:06;97830.22;;;12.81;100.00
5595;BME280;1003;48.002;7.788;2023-03-31T04:08:33;97824.53;;;12.76;100.00
5595;BME280;1003;48.002;7.788;2023-03-31T04:11:00;97836.69;;;12.67;100.00
5595;BME280;1003;48.002;7.788;2023-03-31T04:13:27;97867.53;;;12.51;100.00
5595;BME280;1003;48.002;7.788;2023-03-31T04:15:54;97889.66;;;12.45;100.00
5595;BME280;1003;48.002;7.788;2023-03-31T04:18:21;97890.06;;;12.34;100.00
5595;BME280;1003;48.002;7.788;2023-03-31T04:20:49;97909.50;;;12.30;100.00
5595;BME280;1003;48.002;7.788;2023-03-31T04:23:21;97939.44;;;12.16;100.00
5595;BME280;1003;48.002;7.788;2023-03-31T04:25:51;97943.47;;;12.20;100.00
5595;BME280;1003;48.002;7.788;2023-03-31T04:28:18;97955.63;;;12.09;100.00
5595;BME280;1003;48.002;7.788;2023-03-31T04:30:45;97957.38;;;12.07;100.00
5595;BME280;1003;48.002;7.788;2023-03-31T04:33:12;97978.56;;;12.01;100.00
5595;BME280;1003;48.002;7.788;2023-03-31T04:35:40;97997.78;;;12.04;100.00
5595;BME280;1003;48.002;7.788;2023-03-31T04:38:18;98023.31;;;11.93;100.00
5595;BME280;1003;48.002;7.788;2023-03-31T04:40:50;98034.34;;;11.91;100.00
5595;BME280;1003;48.002;7.788;2023-03-31T04:43:20;98038.22;;;11.74;100.00
5595;BME280;1003;48.002;7.788;2023-03-31T04:45:47;98036.19;;;11.86;100.00
5595;BME280;1003;48.002;7.788;2023-03-31T04:48:14;98036.31;;;11.81;100.00
5595;BME280;1003;48.002;7.788;2023-03-31T04:50:41;98056.53;;;11.78;100.00
5595;BME280;1003;48.002;7.788;2023-03-31T04:53:08;98076.94;;;11.70;100.00
5595;BME280;1003;48.002;7.788;2023-03-31T04:55:35;98112.38;;;11.64;100.00
5595;BME280;1003;48.002;7.788;2023-03-31T04:58:04;98127.16;;;11.47;100.00
5595;BME280;1003;48.002;7.788;2023-03-31T05:00:31;98142.34;;;11.44;100.00
5595;BME280;1003;48.002;7.788;2023-03-31T05:02:58;98167.78;;;11.35;100.00
5595;BME280;1003;48.002;7.788;2023-03-31T05:05:26;98205.66;;;11.30;100.00
5595;BME280;1003;48.002;7.788;2023-03-31T05:07:53;98219.09;;;11.29;100.00
5595;BME280;1003;48.002;7.788;2023-03-31T05:10:21;98251.09;;;11.24;100.00
5595;BME280;1003;48.002;7.788;2023-03-31T05:12:48;98277.94;;;11.23;100.00
5595;BME280;1003;48.002;7.788;2023-03-31T05:15:17;98312.41;;;11.20;100.00
5595;BME280;1003;48.002;7.788;2023-03-31T05:17:44;98340.09;;;11.18;100.00
5595;BME280;1003;48.002;7.788;2023-03-31T05:20:12;98353.53;;;11.17;100.00
5595;BME280;1003;48.002;7.788;2023-03-31T05:22:40;98356.28;;;11.08;100.00
5595;BME280;1003;48.002;7.788;2023-03-31T05:25:08;98374.03;;;11.02;100.00
5595;BME280;1003;48.002;7.788;2023-03-31T05:27:36;98413.34;;;11.06;100.00
5595;BME280;1003;48.002;7.788;2023-03-31T05:30:05;98373.22;;;11.01;100.00
5595;BME280;1003;48.002;7.788;2023-03-31T05:32:34;98381.69;;;10.99;100.00
5595;BME280;1003;48.002;7.788;2023-03-31T05:35:01;98365.00;;;10.95;100.00
5595;BME280;1003;48.002;7.788;2023-03-31T05:37:28;98365.00;;;10.95;100.00
5595;BME280;1003;48.002;7.788;2023-03-31T05:39:55;98350.75;;;10.95;100.00
5595;BME280;1003;48.002;7.788;2023-03-31T05:42:22;98345.78;;;10.94;100.00
5595;BME280;1003;48.002;7.788;2023-03-31T05:44:49;98364.94;;;10.98;100.00
5595;BME280;1003;48.002;7.788;2023-03-31T05:47:17;98373.34;;;10.97;100.00
5595;BME280;1003;48.002;7.788;2023-03-31T05:49:45;98382.63;;;10.95;100.00
5595;BME280;1003;48.002;7.788;2023-03-31T05:52:12;98386.72;;;10.97;100.00
5595;BME280;1003;48.002;7.788;2023-03-31T05:54:39;98431.31;;;10.91;100.00
5595;BME280;1003;48.002;7.788;2023-03-31T05:57:07;98477.47;;;10.87;100.00
5595;BME280;1003;48.002;7.788;2023-03-31T05:59:35;98458.38;;;10.80;100.00
5595;BME280;1003;48.002;7.788;2023-03-31T06:02:03;98437.56;;;10.74;100.00
5595;BME280;1003;48.002;7.788;2023-03-31T06:04:30;98426.97;;;10.62;100.00
5595;BME280;1003;48.002;7.788;2023-03-31T06:06:59;98397.00;;;10.52;100.00
5595;BME280;1003;48.002;7.788;2023-03-31T06:09:26;98387.06;;;10.48;100.00
5595;BME280;1003;48.002;7.788;2023-03-31T06:11:54;98456.66;;;10.43;100.00
5595;BME280;1003;48.002;7.788;2023-03-31T06:14:21;98490.28;;;10.39;100.00
5595;BME280;1003;48.002;7.788;2023-03-31T06:16:48;98532.97;;;10.39;100.00
5595;BME280;1003;48.002;7.788;2023-03-31T06:19:15;98539.84;;;10.29;100.00
5595;BME280;1003;48.002;7.788;2023-03-31T06:21:42;98538.22;;;10.27;100.00
5595;BME280;1003;48.002;7.788;2023-03-31T06:24:10;98546.56;;;10.29;100.00
5595;BME280;1003;48.002;7.788;2023-03-31T06:26:37;98557.47;;;10.26;100.00
5595;BME280;1003;48.002;7.788;2023-03-31T06:29:04;98561.59;;;10.30;100.00
5595;BME280;1003;48.002;7.788;2023-03-31T06:31:31;98578.28;;;10.34;100.00
5595;BME280;1003;48.002;7.788;2023-03-31T06:33:58;98609.91;;;10.44;100.00
5595;BME280;1003;48.002;7.788;2023-03-31T06:36:25;98633.13;;;10.54;100.00
5595;BME280;1003;48.002;7.788;2023-03-31T06:38:53;98647.28;;;10.61;100.00
5595;BME280;1003;48.002;7.788;2023-03-31T06:41:21;98667.13;;;10.73;100.00
5595;BME280;1003;48.002;7.788;2023-03-31T06:43:49;98652.97;;;10.71;100.00
5595;BME280;1003;48.002;7.788;2023-03-31T06:46:16;98625.78;;;10.88;100.00
5595;BME280;1003;48.002;7.788;2023-03-31T06:48:43;98616.38;;;10.98;100.00
5595;BME280;1003;48.002;7.788;2023-03-31T06:51:11;98586.44;;;10.87;100.00
5595;BME280;1003;48.002;7.788;2023-03-31T06:53:38;98550.69;;;10.73;100.00
5595;BME280;1003;48.002;7.788;2023-03-31T06:56:06;98529.28;;;10.55;100.00
5595;BME280;1003;48.002;7.788;2023-03-31T06:58:34;98495.06;;;10.49;100.00
5595;BME280;1003;48.002;7.788;2023-03-31T07:01:03;98496.91;;;10.82;100.00
5595;BME280;1003;48.002;7.788;2023-03-31T07:03:32;98491.34;;;11.39;100.00
5595;BME280;1003;48.002;7.788;2023-03-31T07:05:59;98496.56;;;12.29;100.00
5595;BME280;1003;48.002;7.788;2023-03-31T07:08:27;98527.00;;;12.80;100.00
5595;BME280;1003;48.002;7.788;2023-03-31T07:10:57;98575.53;;;13.17;100.00
5595;BME280;1003;48.002;7.788;2023-03-31T07:13:25;98573.72;;;13.22;100.00
5595;BME280;1003;48.002;7.788;2023-03-31T07:15:54;98548.91;;;13.61;100.00
5595;BME280;1003;48.002;7.788;2023-03-31T07:18:22;98508.06;;;14.00;100.00
5595;BME280;1003;48.002;7.788;2023-03-31T07:20:57;98447.41;;;14.23;100.00
5595;BME280;1003;48.002;7.788;2023-03-31T07:23:25;98344.56;;;14.47;100.00
5595;BME280;1003;48.002;7.788;2023-03-31T07:25:52;98234.28;;;14.65;100.00
5595;BME280;1003;48.002;7.788;2023-03-31T07:28:19;98178.19;;;14.35;100.00
5595;BME280;1003;48.002;7.788;2023-03-31T07:30:46;98171.06;;;14.84;100.00
5595;BME280;1003;48.002;7.788;2023-03-31T07:33:14;98178.03;;;14.79;100.00
5595;BME280;1003;48.002;7.788;2023-03-31T07:35:41;98191.00;;;15.10;100.00
5595;BME280;1003;48.002;7.788;2023-03-31T07:38:09;98192.97;;;15.41;100.00
5595;BME280;1003;48.002;7.788;2023-03-31T07:40:38;98205.41;;;15.65;100.00
5595;BME280;1003;48.002;7.788;2023-03-31T07:43:06;98218.22;;;15.98;100.00
5595;BME280;1003;48.002;7.788;2023-03-31T07:45:34;98224.28;;;15.95;100.00
5595;BME280;1003;48.002;7.788;2023-03-31T07:48:01;98227.53;;;15.97;100.00
5595;BME280;1003;48.002;7.788;2023-03-31T07:50:29;98223.97;;;16.01;100.00
5595;BME280;1003;48.002;7.788;2023-03-31T07:52:56;98228.72;;;15.90;100.00
5595;BME280;1003;48.002;7.788;2023-03-31T07:55:23;98253.38;;;15.87;100.00
5595;BME280;1003;48.002;7.788;2023-03-31T07:57:52;98256.06;;;15.84;100.00
5595;BME280;1003;48.002;7.788;2023-03-31T08:00:20;98253.63;;;15.82;100.00
5595;BME280;1003;48.002;7.788;2023-03-31T08:02:48;98249.75;;;15.92;100.00
5595;BME280;1003;48.002;7.788;2023-03-31T08:05:18;98243.38;;;15.66;100.00
5595;BME280;1003;48.002;7.788;2023-03-31T08:07:49;98249.75;;;15.55;100.00
5595;BME280;1003;48.002;7.788;2023-03-31T08:10:19;98237.66;;;15.80;100.00
5595;BME280;1003;48.002;7.788;2023-03-31T08:12:47;98236.19;;;15.93;100.00
5595;BME280;1003;48.002;7.788;2023-03-31T08:15:15;98246.78;;;16.19;100.00
5595;BME280;1003;48.002;7.788;2023-03-31T08:17:43;98247.25;;;16.44;100.00
5595;BME280;1003;48.002;7.788;2023-03-31T08:20:11;98242.72;;;16.34;100.00
5595;BME280;1003;48.002;7.788;2023-03-31T08:22:39;98251.28;;;16.83;100.00
5595;BME280;1003;48.002;7.788;2023-03-31T08:25:09;98255.84;;;17.10;100.00
5595;BME280;1003;48.002;7.788;2023-03-31T08:27:39;98240.97;;;17.35;100.00
5595;BME280;1003;48.002;7.788;2023-03-31T08:30:09;98201.06;;;17.21;100.00
5595;BME280;1003;48.002;7.788;2023-03-31T08:32:36;98196.16;;;17.02;100.00
5595;BME280;1003;48.002;7.788;2023-03-31T08:35:05;98179.88;;;16.73;100.00
5595;BME280;1003;48.002;7.788;2023-03-31T08:37:33;98167.56;;;16.66;100.00
5595;BME280;1003;48.002;7.788;2023-03-31T08:40:00;98153.38;;;16.79;100.00
5595;BME280;1003;48.002;7.788;2023-03-31T08:42:37;98152.66;;;17.09;100.00
5595;BME280;1003;48.002;7.788;2023-03-31T08:45:16;98133.00;;;16.96;100.00
5595;BME280;1003;48.002;7.788;2023-03-31T08:47:50;98124.50;;;16.97;100.00
5595;BME280;1003;48.002;7.788;2023-03-31T08:50:24;98113.19;;;17.19;100.00
5595;BME280;1003;48.002;7.788;2023-03-31T08:52:58;98103.69;;;17.22;100.00
5595;BME280;1003;48.002;7.788;2023-03-31T08:55:38;98086.97;;;17.34;100.00
5595;BME280;1003;48.002;7.788;2023-03-31T08:58:27;98083.38;;;17.22;100.00
5595;BME280;1003;48.002;7.788;2023-03-31T09:01:07;98074.44;;;17.61;100.00
5595;BME280;1003;48.002;7.788;2023-03-31T09:04:03;98056.53;;;17.78;100.00
5595;BME280;1003;48.002;7.788;2023-03-31T09:06:40;98032.69;;;18.09;100.00
5595;BME280;1003;48.002;7.788;2023-03-31T09:09:16;97993.16;;;18.32;100.00
5595;BME280;1003;48.002;7.788;2023-03-31T09:11:52;97979.63;;;18.46;100.00
5595;BME280;1003;48.002;7.788;2023-03-31T09:14:33;97948.47;;;18.28;100.00
5595;BME280;1003;48.002;7.788;2023-03-31T09:17:16;97955.53;;;18.38;100.00
5595;BME280;1003;48.002;7.788;2023-03-31T09:19:51;97939.63;;;18.48;100.00
5595;BME280;1003;48.002;7.788;2023-03-31T09:22:25;97941.31;;;18.06;100.00
5595;BME280;1003;48.002;7.788;2023-03-31T09:24:59;97936.66;;;18.27;100.00
5595;BME280;1003;48.002;7.788;2023-03-31T09:27:33;97941.38;;;18.60;100.00
5595;BME280;1003;48.002;7.788;2023-03-31T09:30:10;97897.94;;;17.95;100.00
5595;BME280;1003;48.002;7.788;2023-03-31T09:32:41;97892.22;;;17.35;100.00
5595;BME280;1003;48.002;7.788;2023-03-31T09:35:18;97885.47;;;16.75;100.00
5595;BME280;1003;48.002;7.788;2023-03-31T09:37:48;97899.69;;;16.77;100.00
5595;BME280;1003;48.002;7.788;2023-03-31T09:40:18;97903.38;;;16.56;100.00
5595;BME280;1003;48.002;7.788;2023-03-31T09:42:46;97894.50;;;16.49;100.00
5595;BME280;1003;48.002;7.788;2023-03-31T09:45:19;97887.50;;;16.68;100.00
5595;BME280;1003;48.002;7.788;2023-03-31T09:47:50;97887.31;;;16.41;100.00
5595;BME280;1003;48.002;7.788;2023-03-31T09:50:20;97861.38;;;16.36;100.00
5595;BME280;1003;48.002;7.788;2023-03-31T09:52:51;97867.56;;;16.92;100.00
5595;BME280;1003;48.002;7.788;2023-03-31T09:55:23;97830.41;;;17.05;100.00
5595;BME280;1003;48.002;7.788;2023-03-31T09:57:52;97841.69;;;17.30;100.00
5595;BME280;1003;48.002;7.788;2023-03-31T10:00:22;97843.22;;;17.18;100.00
5595;BME280;1003;48.002;7.788;2023-03-31T10:02:52;97830.81;;;17.28;100.00
5595;BME280;1003;48.002;7.788;2023-03-31T10:05:30;97833.50;;;17.53;100.00
5595;BME280;1003;48.002;7.788;2023-03-31T10:08:28;97823.28;;;18.10;100.00
5595;BME280;1003;48.002;7.788;2023-03-31T10:11:07;97820.59;;;17.99;100.00
5595;BME280;1003;48.002;7.788;2023-03-31T10:13:44;97821.56;;;17.55;100.00
5595;BME280;1003;48.002;7.788;2023-03-31T10:16:21;97822.22;;;18.00;100.00
5595;BME280;1003;48.002;7.788;2023-03-31T10:18:49;97825.47;;;18.02;100.00
5595;BME280;1003;48.002;7.788;2023-03-31T10:21:21;97825.13;;;17.94;100.00
5595;BME280;1003;48.002;7.788;2023-03-31T10:23:50;97841.59;;;17.89;100.00
5595;BME280;1003;48.002;7.788;2023-03-31T10:26:21;97834.66;;;18.32;100.00
5595;BME280;1003;48.002;7.788;2023-03-31T10:28:50;97824.13;;;18.24;97.15
5595;BME280;1003;48.002;7.788;2023-03-31T10:31:25;97828.75;;;18.31;94.99
5595;BME280;1003;48.002;7.788;2023-03-31T10:33:54;97824.50;;;17.91;94.10
5595;BME280;1003;48.002;7.788;2023-03-31T10:36:27;97814.31;;;17.35;100.00
5595;BME280;1003;48.002;7.788;2023-03-31T10:38:55;97817.31;;;17.27;100.00
5595;BME280;1003;48.002;7.788;2023-03-31T10:41:26;97814.84;;;17.54;100.00
5595;BME280;1003;48.002;7.788;2023-03-31T10:43:55;97807.50;;;18.05;100.00
5595;BME280;1003;48.002;7.788;2023-03-31T10:46:41;97793.28;;;18.16;100.00
5595;BME280;1003;48.002;7.788;2023-03-31T10:49:25;97779.75;;;18.15;100.00
5595;BME280;1003;48.002;7.788;2023-03-31T10:51:54;97785.69;;;18.01;100.00
5595;BME280;1003;48.002;7.788;2023-03-31T10:54:22;97779.63;;;17.77;100.00
5595;BME280;1003;48.002;7.788;2023-03-31T10:56:51;97772.22;;;17.45;100.00
5595;BME280;1003;48.002;7.788;2023-03-31T10:59:37;97755.25;;;17.46;100.00
5595;BME280;1003;48.002;7.788;2023-03-31T11:05:48;97789.38;;;17.97;100.00
5595;BME280;1003;48.002;7.788;2023-03-31T11:08:35;97788.66;;;18.08;100.00
5595;BME280;1003;48.002;7.788;2023-03-31T11:11:24;97802.34;;;16.18;100.00
5595;BME280;1003;48.002;7.788;2023-03-31T11:14:00;97774.63;;;14.70;100.00
5595;BME280;1003;48.002;7.788;2023-03-31T11:16:42;97776.38;;;14.16;100.00
5595;BME280;1003;48.002;7.788;2023-03-31T11:19:35;97784.88;;;14.32;100.00
5595;BME280;1003;48.002;7.788;2023-03-31T11:22:10;97814.13;;;14.19;100.00
5595;BME280;1003;48.002;7.788;2023-03-31T11:25:11;97786.19;;;15.09;100.00
5595;BME280;1003;48.002;7.788;2023-03-31T11:27:57;97763.22;;;15.61;100.00
5595;BME280;1003;48.002;7.788;2023-03-31T11:30:35;97762.69;;;15.71;100.00
5595;BME280;1003;48.002;7.788;2023-03-31T11:33:28;97765.66;;;16.70;100.00
5595;BME280;1003;48.002;7.788;2023-03-31T11:36:19;97766.31;;;17.16;100.00
5595;BME280;1003;48.002;7.788;2023-03-31T11:39:11;97772.22;;;17.45;100.00
5595;BME280;1003;48.002;7.788;2023-03-31T11:41:46;97763.97;;;17.69;100.00
5595;BME280;1003;48.002;7.788;2023-03-31T11:44:18;97777.72;;;17.38;100.00
5595;BME280;1003;48.002;7.788;2023-03-31T11:46:51;97771.28;;;17.61;100.00
5595;BME280;1003;48.002;7.788;2023-03-31T11:49:23;97788.28;;;17.17;100.00
5595;BME280;1003;48.002;7.788;2023-03-31T11:51:56;97792.66;;;16.71;100.00
5595;BME280;1003;48.002;7.788;2023-03-31T11:54:32;97777.03;;;15.71;100.00
5595;BME280;1003;48.002;7.788;2023-03-31T11:57:09;97745.78;;;15.07;100.00
5595;BME280;1003;48.002;7.788;2023-03-31T11:59:41;97736.53;;;14.73;100.00
5595;BME280;1003;48.002;7.788;2023-03-31T12:02:17;97736.25;;;14.62;100.00
5595;BME280;1003;48.002;7.788;2023-03-31T12:04:51;97728.88;;;14.57;100.00
5595;BME280;1003;48.002;7.788;2023-03-31T12:07:30;97717.44;;;14.67;100.00
5595;BME280;1003;48.002;7.788;2023-03-31T12:10:04;97714.88;;;15.01;100.00
5595;BME280;1003;48.002;7.788;2023-03-31T12:12:44;97728.75;;;15.58;100.00
5595;BME280;1003;48.002;7.788;2023-03-31T12:15:20;97724.94;;;15.67;100.00
5595;BME280;1003;48.002;7.788;2023-03-31T12:17:58;97741.72;;;15.52;100.00
5595;BME280;1003;48.002;7.788;2023-03-31T12:20:33;97726.31;;;15.72;100.00
5595;BME280;1003;48.002;7.788;2023-03-31T12:23:10;97719.16;;;15.95;100.00
5595;BME280;1003;48.002;7.788;2023-03-31T12:25:49;97714.13;;;16.39;100.00
5595;BME280;1003;48.002;7.788;2023-03-31T12:28:18;97696.50;;;16.52;100.00
5595;BME280;1003;48.002;7.788;2023-03-31T12:30:47;97699.56;;;16.57;100.00
5595;BME280;1003;48.002;7.788;2023-03-31T12:33:21;97679.06;;;16.76;100.00
5595;BME280;1003;48.002;7.788;2023-03-31T12:36:10;97673.88;;;16.19;100.00
5595;BME280;1003;48.002;7.788;2023-03-31T12:38:57;97657.25;;;15.85;100.00
5595;BME280;1003;48.002;7.788;2023-03-31T12:41:39;97655.81;;;15.95;100.00
5595;BME280;1003;48.002;7.788;2023-03-31T12:44:29;97637.63;;;16.90;100.00
5595;BME280;1003;48.002;7.788;2023-03-31T12:47:33;97623.09;;;17.87;100.00
5595;BME280;1003;48.002;7.788;2023-03-31T12:53:40;97627.88;;;17.38;100.00
5595;BME280;1003;48.002;7.788;2023-03-31T12:56:10;97625.47;;;17.36;100.00
5595;BME280;1003;48.002;7.788;2023-03-31T12:58:43;97628.84;;;16.95;100.00
5595;BME280;1003;48.002;7.788;2023-03-31T13:01:18;97638.34;;;16.92;100.00
5595;BME280;1003;48.002;7.788;2023-03-31T13:04:06;97649.75;;;17.13;100.00
5595;BME280;1003;48.002;7.788;2023-03-31T13:06:53;97657.41;;;16.85;100.00
5595;BME280;1003;48.002;7.788;2023-03-31T13:09:47;97638.25;;;16.50;100.00
5595;BME280;1003;48.002;7.788;2023-03-31T13:12:22;97647.97;;;16.58;100.00
5595;BME280;1003;48.002;7.788;2023-03-31T13:14:54;97640.56;;;16.11;100.00
5595;BME280;1003;48.002;7.788;2023-03-31T13:17:29;97650.91;;;15.78;100.00
5595;BME280;1003;48.002;7.788;2023-03-31T13:20:31;97657.75;;;15.28;100.00
5595;BME280;1003;48.002;7.788;2023-03-31T13:23:14;97655.81;;;15.02;100.00
5595;BME280;1003;48.002;7.788;2023-03-31T13:25:47;97668.38;;;14.54;100.00
5595;BME280;1003;48.002;7.788;2023-03-31T13:28:33;97675.53;;;14.11;100.00
5595;BME280;1003;48.002;7.788;2023-03-31T13:31:03;97677.50;;;13.70;100.00
5595;BME280;1003;48.002;7.788;2023-03-31T13:33:44;97706.56;;;13.24;100.00
5595;BME280;1003;48.002;7.788;2023-03-31T13:36:58;97741.06;;;12.01;100.00
5595;BME280;1003;48.002;7.788;2023-03-31T13:39:57;97780.59;;;11.30;100.00
5595;BME280;1003;48.002;7.788;2023-03-31T13:42:57;97824.78;;;10.87;100.00
5595;BME280;1003;48.002;7.788;2023-03-31T13:45:54;97830.25;;;10.73;100.00
5595;BME280;1003;48.002;7.788;2023-03-31T13:48:43;97843.09;;;10.66;100.00
5595;BME280;1003;48.002;7.788;2023-03-31T13:51:32;97828.19;;;10.60;100.00
5595;BME280;1003;48.002;7.788;2023-03-31T13:54:53;97838.75;;;10.43;100.00
5595;BME280;1003;48.002;7.788;2023-03-31T13:58:02;97842.63;;;10.27;100.00